createdAt,value
2018-03-29T00:01:49.431Z,90.10
2018-03-29T00:04:17.460Z,90.10
2018-03-29T00:06:45.011Z,90.10
2018-03-29T00:09:12.629Z,90.10
2018-03-29T00:11:40.185Z,90.00
2018-03-29T00:14:07.760Z,90.00
2018-03-29T00:16:35.295Z,90.10
2018-03-29T00:19:02.838Z,90.10
2018-03-29T00:21:30.525Z,90.20
2018-03-29T00:23:58.064Z,90.10
2018-03-29T00:26:25.640Z,90.10
2018-03-29T00:28:53.181Z,90.40
2018-03-29T00:31:21.506Z,90.50
2018-03-29T00:33:49.059Z,90.50
2018-03-29T00:36:16.765Z,90.40
2018-03-29T00:38:45.091Z,90.30
2018-03-29T00:41:12.684Z,90.30
2018-03-29T00:43:40.317Z,90.20
2018-03-29T00:46:08.766Z,90.30
2018-03-29T00:48:36.312Z,90.10
2018-03-29T00:51:04.665Z,90.20
2018-03-29T00:53:44.539Z,90.10
2018-03-29T00:56:12.901Z,90.20
2018-03-29T00:58:40.438Z,90.20
2018-03-29T01:01:08.019Z,90.40
2018-03-29T01:03:35.591Z,90.40
2018-03-29T01:06:03.901Z,90.50
2018-03-29T01:08:33.384Z,90.50
2018-03-29T01:11:01.689Z,90.70
2018-03-29T01:13:29.249Z,90.70
2018-03-29T01:15:56.782Z,90.70
2018-03-29T01:18:24.363Z,90.70
2018-03-29T01:20:52.156Z,90.60
2018-03-29T01:23:19.721Z,90.50
2018-03-29T01:25:47.285Z,90.50
2018-03-29T01:28:14.847Z,90.60
2018-03-29T01:30:42.394Z,90.70
2018-03-29T01:33:10.033Z,90.70
2018-03-29T01:35:37.602Z,90.20
2018-03-29T01:38:05.173Z,90.20
2018-03-29T01:40:32.709Z,90.80
2018-03-29T01:43:00.430Z,90.70
2018-03-29T01:45:28.741Z,90.80
2018-03-29T01:47:56.310Z,90.80
2018-03-29T01:50:23.850Z,90.30
2018-03-29T01:52:51.414Z,91.20
2018-03-29T01:55:18.931Z,91.60
2018-03-29T01:57:46.458Z,91.50
2018-03-29T02:00:14.018Z,90.90
2018-03-29T02:02:41.564Z,90.80
2018-03-29T02:05:09.124Z,90.80
2018-03-29T02:07:36.661Z,90.60
2018-03-29T02:10:04.224Z,90.00
2018-03-29T02:12:32.617Z,90.50
2018-03-29T02:15:00.445Z,90.40
2018-03-29T02:17:28.848Z,90.20
2018-03-29T02:19:56.417Z,90.20
2018-03-29T02:22:23.953Z,90.20
2018-03-29T02:24:51.506Z,90.20
2018-03-29T02:27:19.912Z,89.40
2018-03-29T02:29:47.466Z,89.40
2018-03-29T02:32:15.007Z,88.70
2018-03-29T02:34:42.585Z,88.70
2018-03-29T02:37:10.128Z,88.70
2018-03-29T02:39:37.685Z,88.10
2018-03-29T02:42:05.993Z,87.90
2018-03-29T02:44:33.563Z,87.80
2018-03-29T02:47:01.107Z,87.50
2018-03-29T02:49:28.717Z,87.40
2018-03-29T02:51:56.426Z,87.10
2018-03-29T02:54:23.966Z,87.30
2018-03-29T02:56:51.516Z,86.40
2018-03-29T02:59:19.929Z,86.30
2018-03-29T03:01:47.499Z,86.20
2018-03-29T03:04:15.036Z,86.40
2018-03-29T03:06:42.599Z,86.20
2018-03-29T03:09:10.311Z,86.20
2018-03-29T03:11:38.694Z,86.10
2018-03-29T03:14:06.222Z,86.10
2018-03-29T03:16:33.865Z,86.10
2018-03-29T03:19:01.620Z,86.00
2018-03-29T03:21:29.353Z,86.00
2018-03-29T03:23:57.656Z,85.70
2018-03-29T03:26:25.461Z,85.70
2018-03-29T03:28:52.993Z,84.80
2018-03-29T03:31:20.545Z,84.80
2018-03-29T03:33:48.086Z,84.30
2018-03-29T03:36:16.420Z,84.50
2018-03-29T03:38:43.961Z,84.40
2018-03-29T03:41:11.521Z,84.50
2018-03-29T03:43:39.073Z,84.50
2018-03-29T03:46:06.644Z,84.50
2018-03-29T03:48:34.180Z,84.10
2018-03-29T03:51:01.848Z,84.40
2018-03-29T03:53:29.509Z,84.50
2018-03-29T03:55:57.059Z,84.40
2018-03-29T03:58:24.612Z,84.20
2018-03-29T04:00:52.170Z,84.00
2018-03-29T04:03:19.746Z,84.10
2018-03-29T04:05:47.286Z,83.90
2018-03-29T04:08:15.076Z,83.60
2018-03-29T04:10:42.613Z,83.40
2018-03-29T04:13:10.179Z,83.10
2018-03-29T04:15:37.736Z,83.30
2018-03-29T04:18:05.307Z,83.30
2018-03-29T04:20:32.843Z,83.10
2018-03-29T04:23:01.181Z,82.90
2018-03-29T04:25:28.715Z,82.90
2018-03-29T04:27:56.309Z,82.90
2018-03-29T04:30:23.835Z,82.80
2018-03-29T04:32:51.397Z,82.80
2018-03-29T04:35:18.937Z,82.30
2018-03-29T04:37:46.540Z,82.30
2018-03-29T04:40:14.265Z,81.70
2018-03-29T04:42:41.806Z,81.70
2018-03-29T04:45:09.382Z,81.60
2018-03-29T04:47:36.920Z,80.70
2018-03-29T04:50:05.322Z,80.10
2018-03-29T04:52:32.865Z,80.10
2018-03-29T04:55:00.548Z,80.30
2018-03-29T04:57:28.079Z,79.90
2018-03-29T04:59:55.641Z,79.80
2018-03-29T05:02:23.941Z,79.40
2018-03-29T05:04:51.498Z,79.40
2018-03-29T05:07:19.104Z,79.30
2018-03-29T05:09:46.686Z,79.00
2018-03-29T05:12:15.005Z,79.50
2018-03-29T05:14:42.560Z,79.50
2018-03-29T05:17:10.214Z,79.60
2018-03-29T05:19:37.773Z,79.60
2018-03-29T05:22:05.541Z,79.40
2018-03-29T05:24:33.125Z,79.50
2018-03-29T05:27:00.665Z,79.50
2018-03-29T05:29:28.211Z,79.50
2018-03-29T05:31:55.747Z,79.00
2018-03-29T05:34:23.317Z,79.00
2018-03-29T05:36:50.860Z,78.80
2018-03-29T05:39:18.579Z,78.60
2018-03-29T05:41:46.142Z,78.30
2018-03-29T05:44:13.697Z,78.90
2018-03-29T05:46:41.290Z,76.70
2018-03-29T05:49:08.833Z,77.20
2018-03-29T05:51:36.393Z,77.50
2018-03-29T05:54:03.958Z,77.20
2018-03-29T05:56:31.538Z,77.60
2018-03-29T05:58:59.061Z,77.40
2018-03-29T06:01:26.618Z,77.00
2018-03-29T06:03:54.148Z,77.00
2018-03-29T06:06:21.706Z,77.00
2018-03-29T06:08:49.236Z,77.40
2018-03-29T06:11:16.806Z,76.90
2018-03-29T06:13:45.126Z,76.80
2018-03-29T06:16:17.461Z,76.80
2018-03-29T06:18:44.992Z,76.70
2018-03-29T06:21:12.766Z,76.70
2018-03-29T06:23:41.085Z,76.20
2018-03-29T06:26:08.643Z,76.20
2018-03-29T06:28:36.195Z,76.20
2018-03-29T06:31:03.759Z,76.10
2018-03-29T06:33:31.315Z,75.40
2018-03-29T06:35:58.880Z,75.50
2018-03-29T06:38:26.646Z,75.10
2018-03-29T06:40:54.205Z,74.60
2018-03-29T06:43:21.770Z,73.10
2018-03-29T06:45:49.538Z,74.00
2018-03-29T06:48:17.253Z,73.70
2018-03-29T06:50:45.520Z,73.30
2018-03-29T06:53:13.853Z,73.50
2018-03-29T06:55:41.396Z,73.40
2018-03-29T06:58:08.957Z,73.60
2018-03-29T07:00:36.504Z,73.60
2018-03-29T07:03:04.086Z,73.70
2018-03-29T07:05:31.651Z,72.60
2018-03-29T07:07:59.228Z,72.90
2018-03-29T07:10:26.824Z,72.70
2018-03-29T07:12:55.334Z,72.70
2018-03-29T07:15:22.868Z,72.70
2018-03-29T07:17:50.560Z,72.40
2018-03-29T07:20:18.088Z,72.10
2018-03-29T07:22:46.416Z,72.30
2018-03-29T07:25:13.951Z,72.40
2018-03-29T07:27:41.500Z,72.00
2018-03-29T07:30:09.051Z,73.00
2018-03-29T07:32:36.609Z,72.30
2018-03-29T07:35:04.178Z,73.50
2018-03-29T07:37:31.736Z,73.00
2018-03-29T07:39:59.274Z,73.30
2018-03-29T07:42:26.837Z,73.00
2018-03-29T07:44:54.381Z,73.30
2018-03-29T07:47:21.941Z,73.10
2018-03-29T07:49:49.464Z,73.00
2018-03-29T07:52:17.026Z,73.40
2018-03-29T07:54:44.557Z,73.50
2018-03-29T07:57:12.141Z,73.50
2018-03-29T07:59:39.685Z,73.50
2018-03-29T08:02:07.516Z,73.50
2018-03-29T08:04:35.926Z,73.20
2018-03-29T08:07:03.525Z,73.20
2018-03-29T08:09:31.063Z,71.90
2018-03-29T08:11:58.630Z,73.60
2018-03-29T08:14:26.158Z,72.70
2018-03-29T08:16:53.700Z,72.30
2018-03-29T08:19:21.259Z,73.00
2018-03-29T08:21:48.825Z,72.30
2018-03-29T08:24:16.465Z,72.30
2018-03-29T08:26:44.779Z,70.80
2018-03-29T08:29:12.355Z,70.80
2018-03-29T08:31:40.037Z,71.80
2018-03-29T08:34:07.596Z,72.00
2018-03-29T08:36:35.125Z,71.90
2018-03-29T08:39:02.686Z,71.70
2018-03-29T08:41:30.254Z,71.70
2018-03-29T08:43:57.821Z,71.20
2018-03-29T08:46:25.562Z,71.60
2018-03-29T08:48:53.160Z,71.50
2018-03-29T08:51:20.692Z,71.10
2018-03-29T08:53:48.254Z,71.80
2018-03-29T08:56:15.818Z,71.60
2018-03-29T08:58:43.528Z,72.20
2018-03-29T09:01:11.828Z,71.60
2018-03-29T09:03:39.431Z,71.50
2018-03-29T09:06:06.974Z,71.10
2018-03-29T09:08:34.514Z,71.70
2018-03-29T09:11:02.088Z,71.20
2018-03-29T09:13:29.638Z,70.20
2018-03-29T09:15:57.198Z,69.90
2018-03-29T09:18:24.757Z,70.20
2018-03-29T09:20:52.328Z,70.30
2018-03-29T09:23:19.857Z,70.70
2018-03-29T09:25:47.424Z,70.80
2018-03-29T09:28:14.964Z,70.60
2018-03-29T09:30:42.525Z,71.00
2018-03-29T09:33:10.827Z,70.20
2018-03-29T09:35:38.537Z,70.20
2018-03-29T09:38:06.087Z,69.50
2018-03-29T09:40:33.657Z,69.60
2018-03-29T09:43:01.196Z,69.60
2018-03-29T09:45:28.764Z,68.70
2018-03-29T09:47:56.968Z,69.10
2018-03-29T09:50:25.484Z,68.70
2018-03-29T09:52:53.022Z,68.70
2018-03-29T09:55:20.775Z,69.30
2018-03-29T09:57:49.193Z,68.50
2018-03-29T10:00:16.775Z,68.50
2018-03-29T10:02:50.061Z,68.80
2018-03-29T10:05:17.936Z,69.30
2018-03-29T10:07:45.519Z,68.80
2018-03-29T10:10:13.116Z,69.00
2018-03-29T10:12:40.865Z,68.10
2018-03-29T10:15:08.404Z,68.50
2018-03-29T10:17:35.976Z,68.90
2018-03-29T10:20:03.502Z,69.70
2018-03-29T10:22:31.057Z,70.10
2018-03-29T10:24:58.597Z,70.20
2018-03-29T10:27:26.166Z,70.20
2018-03-29T10:29:53.714Z,70.00
2018-03-29T10:32:21.290Z,69.70
2018-03-29T10:34:48.832Z,70.10
2018-03-29T10:37:16.385Z,68.20
2018-03-29T10:39:44.150Z,68.30
2018-03-29T10:42:11.726Z,67.60
2018-03-29T10:44:39.266Z,68.10
2018-03-29T10:47:06.840Z,67.60
2018-03-29T10:49:34.388Z,66.80
2018-03-29T10:52:02.007Z,66.80
2018-03-29T10:54:29.546Z,67.10
2018-03-29T10:56:57.105Z,65.30
2018-03-29T10:59:24.693Z,66.70
2018-03-29T11:01:53.005Z,66.60
2018-03-29T11:04:20.561Z,66.70
2018-03-29T11:06:48.248Z,66.00
2018-03-29T11:09:15.833Z,65.90
2018-03-29T11:11:43.384Z,65.90
2018-03-29T11:14:11.005Z,65.80
2018-03-29T11:16:38.541Z,65.50
2018-03-29T11:19:06.872Z,65.70
2018-03-29T11:21:34.416Z,65.70
2018-03-29T11:24:02.018Z,65.00
2018-03-29T11:26:29.578Z,64.90
2018-03-29T11:28:57.140Z,65.70
2018-03-29T11:31:24.676Z,65.30
2018-03-29T11:33:52.311Z,65.70
2018-03-29T11:36:19.856Z,65.20
2018-03-29T11:38:47.468Z,64.80
2018-03-29T11:41:14.996Z,64.40
2018-03-29T11:43:42.566Z,65.50
2018-03-29T11:46:10.102Z,64.40
2018-03-29T11:48:37.685Z,65.80
2018-03-29T11:51:05.238Z,64.70
2018-03-29T11:53:32.796Z,64.50
2018-03-29T11:56:00.437Z,65.90
2018-03-29T11:58:27.999Z,64.40
2018-03-29T12:00:55.593Z,64.20
2018-03-29T12:03:24.989Z,64.30
2018-03-29T12:05:52.546Z,65.60
2018-03-29T12:08:20.076Z,64.80
2018-03-29T12:10:47.651Z,65.10
2018-03-29T12:13:15.214Z,65.30
2018-03-29T12:15:42.784Z,64.80
2018-03-29T12:18:10.329Z,65.30
2018-03-29T12:20:37.971Z,65.60
2018-03-29T12:23:05.638Z,65.00
2018-03-29T12:25:33.471Z,63.10
2018-03-29T12:28:01.795Z,63.40
2018-03-29T12:30:29.996Z,63.30
2018-03-29T12:32:57.541Z,64.00
2018-03-29T12:35:25.112Z,63.90
2018-03-29T12:37:52.646Z,64.00
2018-03-29T12:40:20.238Z,64.70
2018-03-29T12:42:47.786Z,63.30
2018-03-29T12:45:15.345Z,63.50
2018-03-29T12:47:42.871Z,63.80
2018-03-29T12:50:10.674Z,64.30
2018-03-29T12:52:38.245Z,65.40
2018-03-29T12:55:18.042Z,64.60
2018-03-29T12:57:57.552Z,65.50
2018-03-29T13:00:25.077Z,64.80
2018-03-29T13:02:52.659Z,64.10
2018-03-29T13:05:20.197Z,63.50
2018-03-29T13:07:47.980Z,63.80
2018-03-29T13:10:15.541Z,63.80
2018-03-29T13:12:43.097Z,62.80
2018-03-29T13:15:10.638Z,63.10
2018-03-29T13:17:38.205Z,64.70
2018-03-29T13:20:05.754Z,63.40
2018-03-29T13:22:33.323Z,63.40
2018-03-29T13:25:00.848Z,63.70
2018-03-29T13:27:28.504Z,63.70
2018-03-29T13:29:56.038Z,65.60
2018-03-29T13:32:24.518Z,63.90
2018-03-29T13:34:52.812Z,62.80
2018-03-29T13:37:20.386Z,62.70
2018-03-29T13:39:47.946Z,63.60
2018-03-29T13:42:15.552Z,62.90
2018-03-29T13:44:43.093Z,62.50
2018-03-29T13:47:10.822Z,63.00
2018-03-29T13:49:38.417Z,62.30
2018-03-29T13:52:05.967Z,63.70
2018-03-29T13:54:33.845Z,62.40
2018-03-29T13:57:01.468Z,62.20
2018-03-29T13:59:29.047Z,63.20
2018-03-29T14:01:56.606Z,64.10
2018-03-29T14:04:24.171Z,64.00
2018-03-29T14:06:51.702Z,64.10
2018-03-29T14:09:19.456Z,63.20
2018-03-29T14:11:47.016Z,63.10
2018-03-29T14:14:14.597Z,63.20
2018-03-29T14:16:42.150Z,63.70
2018-03-29T14:19:09.728Z,63.60
2018-03-29T14:21:37.470Z,63.10
2018-03-29T14:24:05.049Z,65.60
2018-03-29T14:26:32.624Z,64.00
2018-03-29T14:29:00.200Z,63.40
2018-03-29T14:31:27.738Z,63.60
2018-03-29T14:33:55.398Z,63.20
2018-03-29T14:36:22.952Z,64.50
2018-03-29T14:38:50.525Z,63.40
2018-03-29T14:41:18.156Z,64.90
2018-03-29T14:43:45.709Z,63.30
2018-03-29T14:46:13.438Z,63.70
2018-03-29T14:48:40.983Z,63.30
2018-03-29T14:51:08.560Z,62.50
2018-03-29T14:53:36.114Z,62.80
2018-03-29T14:56:04.501Z,62.10
2018-03-29T14:58:32.057Z,62.10
2018-03-29T15:01:00.414Z,61.60
2018-03-29T15:03:28.727Z,62.10
2018-03-29T15:05:56.319Z,62.10
2018-03-29T15:08:23.902Z,62.10
2018-03-29T15:10:52.397Z,62.10
2018-03-29T15:13:20.422Z,61.80
2018-03-29T15:15:48.205Z,61.40
2018-03-29T15:18:15.758Z,60.90
2018-03-29T15:20:43.353Z,60.80
2018-03-29T15:23:10.900Z,61.90
2018-03-29T15:25:39.258Z,62.40
2018-03-29T15:28:06.797Z,61.80
2018-03-29T15:30:34.409Z,61.80
2018-03-29T15:33:01.960Z,62.00
2018-03-29T15:35:29.708Z,61.30
2018-03-29T15:37:57.968Z,60.50
2018-03-29T15:40:25.541Z,60.40
2018-03-29T15:42:53.171Z,60.80
2018-03-29T15:45:20.730Z,59.90
2018-03-29T15:47:48.358Z,59.50
2018-03-29T15:50:16.702Z,60.50
2018-03-29T15:52:44.304Z,60.40
2018-03-29T15:55:12.672Z,60.40
2018-03-29T15:57:40.275Z,60.40
2018-03-29T16:00:08.027Z,60.40
2018-03-29T16:02:35.624Z,61.10
2018-03-29T16:05:03.161Z,61.20
2018-03-29T16:07:30.810Z,61.20
2018-03-29T16:09:58.388Z,61.00
2018-03-29T16:12:26.002Z,61.00
2018-03-29T16:14:54.333Z,61.60
2018-03-29T16:17:21.913Z,61.70
2018-03-29T16:19:49.544Z,61.60
2018-03-29T16:22:17.148Z,61.60
2018-03-29T16:24:44.678Z,62.00
2018-03-29T16:27:12.386Z,62.20
2018-03-29T16:29:40.722Z,62.30
2018-03-29T16:32:08.259Z,62.30
2018-03-29T16:34:35.825Z,62.50
2018-03-29T16:37:03.379Z,62.80
2018-03-29T16:39:30.970Z,62.90
2018-03-29T16:41:58.659Z,63.00
2018-03-29T16:44:26.268Z,63.10
2018-03-29T16:46:53.836Z,63.30
2018-03-29T16:49:21.487Z,63.60
2018-03-29T16:51:49.037Z,63.70
2018-03-29T16:54:16.808Z,63.60
2018-03-29T16:56:44.546Z,63.80
2018-03-29T16:59:13.033Z,64.10
2018-03-29T17:01:40.575Z,64.10
2018-03-29T17:04:08.189Z,64.00
2018-03-29T17:06:35.755Z,64.10
2018-03-29T17:09:03.403Z,64.10
2018-03-29T17:11:30.959Z,65.30
2018-03-29T17:13:58.538Z,65.00
2018-03-29T17:16:26.076Z,64.70
2018-03-29T17:18:53.602Z,65.00
2018-03-29T17:21:21.311Z,65.60
2018-03-29T17:23:48.865Z,65.60
2018-03-29T17:26:17.240Z,65.60
2018-03-29T17:28:44.842Z,65.60
2018-03-29T17:31:12.467Z,66.20
2018-03-29T17:33:40.021Z,68.30
2018-03-29T17:36:07.605Z,68.20
2018-03-29T17:38:36.811Z,68.10
2018-03-29T17:41:04.387Z,68.10
2018-03-29T17:43:31.949Z,68.10
2018-03-29T17:46:00.295Z,68.40
2018-03-29T17:48:28.082Z,68.40
2018-03-29T17:50:55.640Z,68.60
2018-03-29T17:53:23.186Z,68.80
2018-03-29T17:55:50.758Z,69.20
2018-03-29T17:58:18.309Z,69.10
2018-03-29T18:00:45.925Z,69.00
2018-03-29T18:03:13.464Z,69.00
2018-03-29T18:05:41.866Z,68.90
2018-03-29T18:08:09.398Z,68.90
2018-03-29T18:10:37.745Z,69.40
2018-03-29T18:13:05.313Z,69.40
2018-03-29T18:15:32.866Z,69.70
2018-03-29T18:18:01.282Z,70.20
2018-03-29T18:20:28.850Z,70.20
2018-03-29T18:22:56.431Z,70.40
2018-03-29T18:25:23.991Z,70.50
2018-03-29T18:27:51.575Z,70.70
2018-03-29T18:30:19.282Z,70.90
2018-03-29T18:32:47.048Z,71.10
2018-03-29T18:35:14.592Z,71.10
2018-03-29T18:37:42.207Z,71.50
2018-03-29T18:40:09.760Z,71.10
2018-03-29T18:42:37.383Z,73.50
2018-03-29T18:45:04.940Z,75.10
2018-03-29T18:47:33.294Z,74.50
2018-03-29T18:50:00.837Z,74.50
2018-03-29T18:52:28.434Z,75.30
2018-03-29T18:54:56.077Z,75.80
2018-03-29T18:57:23.659Z,76.50
2018-03-29T18:59:51.999Z,76.00
2018-03-29T19:02:19.528Z,75.90
2018-03-29T19:04:47.141Z,76.10
2018-03-29T19:07:14.688Z,76.40
2018-03-29T19:09:42.313Z,77.00
2018-03-29T19:12:09.857Z,77.10
2018-03-29T19:14:37.448Z,77.20
2018-03-29T19:17:05.026Z,77.20
2018-03-29T19:19:32.633Z,77.20
2018-03-29T19:22:00.292Z,77.30
2018-03-29T19:24:28.724Z,77.30
2018-03-29T19:26:56.278Z,77.30
2018-03-29T19:29:23.875Z,77.30
2018-03-29T19:31:53.694Z,77.40
2018-03-29T19:34:21.302Z,77.30
2018-03-29T19:36:50.810Z,77.90
2018-03-29T19:39:18.479Z,78.60
2018-03-29T19:41:47.785Z,78.70
2018-03-29T19:44:15.414Z,78.80
2018-03-29T19:46:43.225Z,78.90
2018-03-29T19:49:10.797Z,80.10
2018-03-29T19:51:38.372Z,78.30
2018-03-29T19:54:06.076Z,78.90
2018-03-29T19:56:33.689Z,78.80
2018-03-29T19:59:02.007Z,79.50
2018-03-29T20:01:29.639Z,79.50
2018-03-29T20:03:57.419Z,78.70
2018-03-29T20:06:25.014Z,79.10
2018-03-29T20:08:53.568Z,79.30
2018-03-29T20:11:21.198Z,79.50
2018-03-29T20:13:48.886Z,79.60
2018-03-29T20:16:16.499Z,80.00
2018-03-29T20:18:44.052Z,80.70
2018-03-29T20:21:11.889Z,80.70
2018-03-29T20:23:39.449Z,80.80
2018-03-29T20:26:07.041Z,80.70
2018-03-29T20:28:34.594Z,80.80
2018-03-29T20:31:02.389Z,80.10
2018-03-29T20:33:30.698Z,80.00
2018-03-29T20:35:58.561Z,80.00
2018-03-29T20:38:26.106Z,80.00
2018-03-29T20:40:53.870Z,80.20
2018-03-29T20:43:21.429Z,79.80
2018-03-29T20:45:49.169Z,79.40
2018-03-29T20:48:17.558Z,79.40
2018-03-29T20:50:45.132Z,79.20
2018-03-29T20:53:12.700Z,79.70
2018-03-29T20:55:40.246Z,79.30
2018-03-29T20:58:07.820Z,79.10
2018-03-29T21:00:35.377Z,79.30
2018-03-29T21:03:03.010Z,79.30
2018-03-29T21:05:31.422Z,79.60
2018-03-29T21:07:58.980Z,79.50
2018-03-29T21:10:26.521Z,79.40
2018-03-29T21:12:54.217Z,79.50
2018-03-29T21:15:21.760Z,79.40
2018-03-29T21:17:50.140Z,80.00
2018-03-29T21:20:17.709Z,80.00
2018-03-29T21:22:45.266Z,80.20
2018-03-29T21:25:12.858Z,80.70
2018-03-29T21:27:40.373Z,80.80
2018-03-29T21:30:07.970Z,80.50
2018-03-29T21:32:35.543Z,80.10
2018-03-29T21:35:03.099Z,80.10
2018-03-29T21:37:30.637Z,80.30
2018-03-29T21:39:58.258Z,80.60
2018-03-29T21:42:25.913Z,80.50
2018-03-29T21:44:53.486Z,80.50
2018-03-29T21:47:21.005Z,80.50
2018-03-29T21:49:48.601Z,80.50
2018-03-29T21:52:16.900Z,80.50
2018-03-29T21:54:44.476Z,80.50
2018-03-29T21:57:12.114Z,80.50
2018-03-29T21:59:39.685Z,80.50
2018-03-29T22:02:07.246Z,80.50
2018-03-29T22:04:34.798Z,80.50
2018-03-29T22:07:02.614Z,80.50
2018-03-29T22:09:30.153Z,80.50
2018-03-29T22:11:57.733Z,80.00
2018-03-29T22:14:26.028Z,80.60
2018-03-29T22:16:54.349Z,80.00
2018-03-29T22:19:21.887Z,80.00
2018-03-29T22:21:49.578Z,79.90
2018-03-29T22:24:17.117Z,79.90
2018-03-29T22:26:44.678Z,79.60
2018-03-29T22:29:12.214Z,80.60
2018-03-29T22:31:39.809Z,79.60
2018-03-29T22:34:07.390Z,79.90
2018-03-29T22:36:34.951Z,79.40
2018-03-29T22:39:02.484Z,79.50
2018-03-29T22:41:30.056Z,79.60
2018-03-29T22:43:57.600Z,79.40
2018-03-29T22:46:25.327Z,79.50
2018-03-29T22:48:52.870Z,79.70
2018-03-29T22:51:21.207Z,79.70
2018-03-29T22:53:48.768Z,79.60
2018-03-29T22:56:16.435Z,79.50
2018-03-29T22:58:43.994Z,79.40
2018-03-29T23:01:11.535Z,79.60
2018-03-29T23:03:39.113Z,79.50
2018-03-29T23:06:06.673Z,79.50
2018-03-29T23:08:34.418Z,79.60
2018-03-29T23:11:01.965Z,79.50
2018-03-29T23:13:29.537Z,79.30
2018-03-29T23:15:57.072Z,80.10
2018-03-29T23:18:24.678Z,79.40
2018-03-29T23:20:52.266Z,79.40
2018-03-29T23:23:19.837Z,79.40
2018-03-29T23:25:47.733Z,79.20
2018-03-29T23:28:15.292Z,79.70
2018-03-29T23:30:42.824Z,79.20
2018-03-29T23:33:10.505Z,79.60
2018-03-29T23:35:38.056Z,79.40
2018-03-29T23:38:05.644Z,79.80
2018-03-29T23:40:33.186Z,79.60
2018-03-29T23:43:00.746Z,79.40
2018-03-29T23:45:28.325Z,79.50
2018-03-29T23:47:55.870Z,79.60
2018-03-29T23:50:23.438Z,79.80
2018-03-29T23:52:50.988Z,79.30
2018-03-29T23:55:18.549Z,79.60
2018-03-29T23:57:46.089Z,79.70
